Friday, January 18, 2019, 2:51 AM EST
Back to Local

KPYM, Plymouth Municipal Airport

Location: Carver, MA, United States Lat: 41.9
Local Time: 2:51 AM EST ( 7:51 GMT) Lon: -70.733
Time Zone: US/Eastern Elev: 147 ft

Show me the last for .
Show Coded

Time T Td Feel RH Dir Speed Gust Alt SLP Vis Weather Sky Remarks
2019-01-18 01:52 23 11 - 59 - Calm - 30.26 30.27 10 OVC100 None
2019-01-18 00:52 21 10 - 61 - Calm - 30.28 30.28 10 OVC110 6-hr Min Temp (1am): 19.0°F
6-hr Max Temp (1am): 23.0°F
2019-01-17 23:52 20 8 - 59 - Calm - 30.32 30.32 10 FEW120 24-hr Min Temp (12am): 18.0°F
24-hr Max Temp (12am): 30.0°F
2019-01-17 22:52 22 6 17 49 110° 3 - 30.33 30.34 10 FEW120 None
2019-01-17 21:52 23 9 - 54 - Calm - 30.34 30.34 10 BKN120 None
2019-01-17 20:52 22 11 - 62 - Calm - 30.34 30.35 10 SCT120 None
2019-01-17 19:52 22 9 - 56 - Calm - 30.35 30.36 10 CLR None
2019-01-17 18:52 21 7 - 53 - Calm - 30.35 30.36 10 CLR 6-hr Min Temp (7pm): 19.9°F
6-hr Max Temp (7pm): 30.0°F
2019-01-17 17:52 22 7 17 51 70° 3 - 30.35 30.35 10 CLR None
2019-01-17 16:52 22 5 13 47 110° 7 - 30.35 30.35 10 CLR None
2019-01-17 15:52 26 3 19 36 50° 6 - 30.34 30.35 10 CLR None
2019-01-17 14:52 28 0 24 29 40° 3 - 30.34 30.35 10 CLR None
2019-01-17 13:52 29 -8 - 19 - Calm - 30.35 30.35 10 CLR None
2019-01-17 12:52 28 -8 - 19 - - - 30.36 30.36 10 CLR 6-hr Min Temp (1pm): 18.0°F
6-hr Max Temp (1pm): 28.9°F
2019-01-17 11:52 27 -5 19 23 280° 8 - 30.38 30.38 10 CLR None
2019-01-17 10:52 24 -4 16 28 320° 7 - 30.40 30.40 10 CLR None
2019-01-17 09:52 23 0 15 35 330° 7 - 30.41 30.41 10 CLR None
2019-01-17 08:52 20 1 10 42 300° 8 - 30.39 30.39 10 CLR None
2019-01-17 07:52 19 1 11 44 310° 6 - 30.35 30.36 10 CLR None
2019-01-17 06:52 20 3 9 47 310° 9 - 30.32 30.33 10 CLR 6-hr Min Temp (7am): 19.0°F
6-hr Max Temp (7am): 28.9°F
2019-01-17 05:52 21 6 11 51 340° 9 - 30.30 30.30 10 CLR None
2019-01-17 04:52 24 5 15 43 320° 8 - 30.27 30.28 10 CLR None
2019-01-17 03:52 25 9 16 49 330° 9 - 30.25 30.25 10 CLR None
2019-01-17 02:52 26 13 18 56 300° 7 - 30.23 30.23 10 CLR None

Support USWX by starting your Amazon purchase here.